createdAt,value
2023-04-23T00:00:37.171Z,13.06
2023-04-23T00:03:10.053Z,13.02
2023-04-23T00:05:37.808Z,13.05
2023-04-23T00:08:04.660Z,13.10
2023-04-23T00:10:31.421Z,13.12
2023-04-23T00:12:59.389Z,13.11
2023-04-23T00:15:26.407Z,13.16
2023-04-23T00:17:52.992Z,13.16
2023-04-23T00:20:20.053Z,13.16
2023-04-23T00:22:46.505Z,13.10
2023-04-23T00:25:12.996Z,13.11
2023-04-23T00:27:39.478Z,13.09
2023-04-23T00:30:06.963Z,13.12
2023-04-23T00:32:33.490Z,13.08
2023-04-23T00:35:00.087Z,13.04
2023-04-23T00:37:26.594Z,13.05
2023-04-23T00:39:53.105Z,13.01
2023-04-23T00:42:20.224Z,12.97
2023-04-23T00:44:46.840Z,12.96
2023-04-23T00:47:15.113Z,12.96
2023-04-23T00:49:42.872Z,12.89
2023-04-23T00:52:09.534Z,12.95
2023-04-23T00:54:36.049Z,12.93
2023-04-23T00:57:03.670Z,12.88
2023-04-23T00:59:31.705Z,12.84
2023-04-23T01:01:58.698Z,12.76
2023-04-23T01:04:28.056Z,12.82
2023-04-23T01:06:55.869Z,12.83
2023-04-23T01:09:23.265Z,12.74
2023-04-23T01:11:51.496Z,12.72
2023-04-23T01:14:17.984Z,12.71
2023-04-23T01:16:44.636Z,12.69
2023-04-23T01:19:11.567Z,12.58
2023-04-23T01:21:42.429Z,12.55
2023-04-23T01:24:10.584Z,12.53
2023-04-23T01:26:37.358Z,12.54
2023-04-23T01:29:04.044Z,12.52
2023-04-23T01:31:31.290Z,12.59
2023-04-23T01:33:59.512Z,12.65
2023-04-23T01:36:27.108Z,12.67
2023-04-23T01:38:53.697Z,12.69
2023-04-23T01:41:20.326Z,12.78
2023-04-23T01:43:46.828Z,12.85
2023-04-23T01:46:13.391Z,12.67
2023-04-23T01:48:40.443Z,12.58
2023-04-23T01:51:07.146Z,12.62
2023-04-23T01:53:33.579Z,12.57
2023-04-23T01:56:01.389Z,12.47
2023-04-23T01:58:27.880Z,12.51
2023-04-23T02:00:54.422Z,12.52
2023-04-23T02:03:21.100Z,12.52
2023-04-23T02:05:49.065Z,12.68
2023-04-23T02:08:16.355Z,12.54
2023-04-23T02:10:42.829Z,12.59
2023-04-23T02:13:09.326Z,12.49
2023-04-23T02:15:38.197Z,12.50
2023-04-23T02:18:05.063Z,12.39
2023-04-23T02:20:31.700Z,12.54
2023-04-23T02:22:58.281Z,12.50
2023-04-23T02:25:24.759Z,12.29
2023-04-23T02:27:51.256Z,12.16
2023-04-23T02:30:17.847Z,12.07
2023-04-23T02:32:44.453Z,12.26
2023-04-23T02:35:11.054Z,12.25
2023-04-23T02:37:37.779Z,12.31
2023-04-23T02:40:08.129Z,12.44
2023-04-23T02:42:34.633Z,12.42
2023-04-23T02:45:01.136Z,12.37
2023-04-23T02:47:27.665Z,12.34
2023-04-23T02:49:54.227Z,12.30
2023-04-23T02:52:20.751Z,12.17
2023-04-23T02:54:47.308Z,12.20
2023-04-23T02:57:15.591Z,12.22
2023-04-23T02:59:43.131Z,12.21
2023-04-23T03:02:09.872Z,12.25
2023-04-23T03:04:36.453Z,12.27
2023-04-23T03:07:02.983Z,12.25
2023-04-23T03:09:29.443Z,12.27
2023-04-23T03:11:57.689Z,12.24
2023-04-23T03:14:24.264Z,12.18
2023-04-23T03:16:50.940Z,12.14
2023-04-23T03:19:17.504Z,12.16
2023-04-23T03:21:43.968Z,12.22
2023-04-23T03:24:13.525Z,12.12
2023-04-23T03:26:39.992Z,12.17
2023-04-23T03:29:06.864Z,12.24
2023-04-23T03:31:33.554Z,12.21
2023-04-23T03:34:00.073Z,12.12
2023-04-23T03:36:26.600Z,12.04
2023-04-23T03:38:53.093Z,11.95
2023-04-23T03:41:19.588Z,12.07
2023-04-23T03:43:46.184Z,11.99
2023-04-23T03:46:12.677Z,12.01
2023-04-23T03:48:39.128Z,12.07
2023-04-23T03:51:05.740Z,11.99
2023-04-23T03:53:32.277Z,11.95
2023-04-23T03:55:58.703Z,12.07
2023-04-23T03:58:25.205Z,11.93
2023-04-23T04:00:51.771Z,12.07
2023-04-23T04:03:18.569Z,12.08
2023-04-23T04:05:45.465Z,11.98
2023-04-23T04:08:12.070Z,12.03
2023-04-23T04:10:38.577Z,12.09
2023-04-23T04:13:05.140Z,12.08
2023-04-23T04:15:32.985Z,11.98
2023-04-23T04:18:01.185Z,11.92
2023-04-23T04:20:30.695Z,11.90
2023-04-23T04:22:57.153Z,11.87
2023-04-23T04:25:24.217Z,11.88
2023-04-23T04:27:51.014Z,11.95
2023-04-23T04:30:17.542Z,12.01
2023-04-23T04:32:45.636Z,11.99
2023-04-23T04:35:15.470Z,11.85
2023-04-23T04:37:43.834Z,11.93
2023-04-23T04:40:11.601Z,11.98
2023-04-23T04:42:39.544Z,11.92
2023-04-23T04:45:08.675Z,11.83
2023-04-23T04:47:35.260Z,11.82
2023-04-23T04:50:02.217Z,11.80
2023-04-23T04:52:28.739Z,11.74
2023-04-23T04:54:55.338Z,11.84
2023-04-23T04:57:22.957Z,11.90
2023-04-23T04:59:50.321Z,11.85
2023-04-23T05:02:17.061Z,11.81
2023-04-23T05:04:43.763Z,11.79
2023-04-23T05:07:11.465Z,11.79
2023-04-23T05:09:37.944Z,11.84
2023-04-23T05:12:07.423Z,11.86
2023-04-23T05:14:34.063Z,11.82
2023-04-23T05:17:00.825Z,11.72
2023-04-23T05:19:27.535Z,11.88
2023-04-23T05:21:54.347Z,11.92
2023-04-23T05:24:20.806Z,11.91
2023-04-23T05:26:47.425Z,11.88
2023-04-23T05:29:17.890Z,11.91
2023-04-23T05:31:44.502Z,11.85
2023-04-23T05:34:11.036Z,11.92
2023-04-23T05:36:37.587Z,11.78
2023-04-23T05:39:04.051Z,11.70
2023-04-23T05:41:30.660Z,11.78
2023-04-23T05:43:57.154Z,11.83
2023-04-23T05:46:23.753Z,11.96
2023-04-23T05:48:50.307Z,11.93
2023-04-23T05:51:17.194Z,11.99
2023-04-23T05:53:43.704Z,12.10
2023-04-23T05:56:10.341Z,12.08
2023-04-23T05:58:38.742Z,12.00
2023-04-23T06:01:05.442Z,12.13
2023-04-23T06:03:32.076Z,12.10
2023-04-23T06:05:58.800Z,12.19
2023-04-23T06:08:25.455Z,12.22
2023-04-23T06:10:51.949Z,12.27
2023-04-23T06:13:18.440Z,12.28
2023-04-23T06:15:44.930Z,12.31
2023-04-23T06:18:11.563Z,12.33
2023-04-23T06:20:38.069Z,12.40
2023-04-23T06:23:04.625Z,12.41
2023-04-23T06:25:31.135Z,12.46
2023-04-23T06:27:58.233Z,12.61
2023-04-23T06:30:24.854Z,12.64
2023-04-23T06:32:51.434Z,12.73
2023-04-23T06:35:17.999Z,12.77
2023-04-23T06:37:44.448Z,12.80
2023-04-23T06:40:11.451Z,12.85
2023-04-23T06:42:37.913Z,12.99
2023-04-23T06:45:06.264Z,13.29
2023-04-23T06:47:33.149Z,14.01
2023-04-23T06:50:02.502Z,14.64
2023-04-23T06:52:29.088Z,15.03
2023-04-23T06:54:55.589Z,15.31
2023-04-23T06:57:22.167Z,15.72
2023-04-23T06:59:48.713Z,15.86
2023-04-23T07:02:15.195Z,16.28
2023-04-23T07:04:42.193Z,16.62
2023-04-23T07:07:08.856Z,17.00
2023-04-23T07:09:35.453Z,17.17
2023-04-23T07:12:02.312Z,17.61
2023-04-23T07:14:28.798Z,17.92
2023-04-23T07:16:55.513Z,17.90
2023-04-23T07:19:22.061Z,18.35
2023-04-23T07:21:48.534Z,18.36
2023-04-23T07:24:15.039Z,18.47
2023-04-23T07:26:41.567Z,18.78
2023-04-23T07:29:10.497Z,19.16
2023-04-23T07:31:37.712Z,19.12
2023-04-23T07:34:04.232Z,19.01
2023-04-23T07:36:32.777Z,19.57
2023-04-23T07:38:59.269Z,19.81
2023-04-23T07:41:25.740Z,20.14
2023-04-23T07:43:52.347Z,20.64
2023-04-23T07:46:20.097Z,21.11
2023-04-23T07:48:46.669Z,20.88
2023-04-23T07:51:13.188Z,20.00
2023-04-23T07:53:39.706Z,19.91
2023-04-23T07:56:06.429Z,19.87
2023-04-23T07:58:33.290Z,19.87
2023-04-23T08:00:59.805Z,19.80
2023-04-23T08:03:28.213Z,20.56
2023-04-23T08:05:54.848Z,21.44
2023-04-23T08:08:21.425Z,21.92
2023-04-23T08:10:48.484Z,21.83
2023-04-23T08:13:15.046Z,21.85
2023-04-23T08:15:41.660Z,22.42
2023-04-23T08:18:08.172Z,22.90
2023-04-23T08:20:35.043Z,22.93
2023-04-23T08:23:01.718Z,22.50
2023-04-23T08:25:28.253Z,22.04
2023-04-23T08:27:54.810Z,21.77
2023-04-23T08:30:21.516Z,21.46
2023-04-23T08:32:51.110Z,21.55
2023-04-23T08:35:17.965Z,22.53
2023-04-23T08:37:44.532Z,22.88
2023-04-23T08:40:11.477Z,21.88
2023-04-23T08:42:44.100Z,21.41
2023-04-23T08:45:11.904Z,21.27
2023-04-23T08:47:43.875Z,21.61
2023-04-23T08:50:18.132Z,21.75
2023-04-23T08:52:54.379Z,22.10
2023-04-23T08:55:22.047Z,22.44
2023-04-23T08:57:49.780Z,22.59
2023-04-23T09:00:18.995Z,23.01
2023-04-23T09:02:47.678Z,23.19
2023-04-23T09:05:15.307Z,23.44
2023-04-23T09:07:42.703Z,22.74
2023-04-23T09:10:11.715Z,22.70
2023-04-23T09:12:41.394Z,23.29
2023-04-23T09:15:11.050Z,23.73
2023-04-23T09:17:45.026Z,23.80
2023-04-23T09:20:13.211Z,23.79
2023-04-23T09:22:47.772Z,23.74
2023-04-23T09:25:20.954Z,23.56
2023-04-23T09:27:47.948Z,23.11
2023-04-23T09:30:15.129Z,23.13
2023-04-23T09:32:43.290Z,23.37
2023-04-23T09:35:12.212Z,23.39
2023-04-23T09:37:42.361Z,24.19
2023-04-23T09:40:09.627Z,23.77
2023-04-23T09:42:37.079Z,24.32
2023-04-23T09:45:08.386Z,23.82
2023-04-23T09:47:38.842Z,23.58
2023-04-23T09:50:06.260Z,23.54
2023-04-23T09:52:34.012Z,22.66
2023-04-23T09:55:05.310Z,23.36
2023-04-23T09:57:38.964Z,24.32
2023-04-23T10:00:22.921Z,24.81
2023-04-23T10:02:51.128Z,25.44
2023-04-23T10:05:24.907Z,25.85
2023-04-23T10:07:59.929Z,26.37
2023-04-23T10:10:26.727Z,27.08
2023-04-23T10:12:55.803Z,26.04
2023-04-23T10:15:25.272Z,25.50
2023-04-23T10:17:52.515Z,24.94
2023-04-23T10:20:21.042Z,24.70
2023-04-23T10:22:48.448Z,24.62
2023-04-23T10:25:15.317Z,23.68
2023-04-23T10:27:53.208Z,23.08
2023-04-23T10:30:21.192Z,23.53
2023-04-23T10:32:49.828Z,23.38
2023-04-23T10:35:16.639Z,23.66
2023-04-23T10:37:46.535Z,24.20
2023-04-23T10:40:15.096Z,23.88
2023-04-23T10:42:44.145Z,25.28
2023-04-23T10:45:23.530Z,25.00
2023-04-23T10:47:55.108Z,25.09
2023-04-23T10:50:35.917Z,25.85
2023-04-23T10:53:03.178Z,26.20
2023-04-23T10:55:31.441Z,26.69
2023-04-23T10:58:05.871Z,27.38
2023-04-23T11:00:41.215Z,27.43
2023-04-23T11:03:37.308Z,28.14
2023-04-23T11:06:06.325Z,28.33
2023-04-23T11:08:35.647Z,28.85
2023-04-23T11:11:07.851Z,29.10
2023-04-23T11:13:34.775Z,29.24
2023-04-23T11:16:18.632Z,28.96
2023-04-23T11:19:06.409Z,28.82
2023-04-23T11:21:58.521Z,29.23
2023-04-23T11:24:27.407Z,29.47
2023-04-23T11:26:57.208Z,30.12
2023-04-23T11:29:26.445Z,29.55
2023-04-23T11:32:02.262Z,29.82
2023-04-23T11:34:29.381Z,29.67
2023-04-23T11:36:59.404Z,30.06
2023-04-23T11:39:27.022Z,28.71
2023-04-23T11:41:54.008Z,29.80
2023-04-23T11:44:21.439Z,29.38
2023-04-23T11:46:49.621Z,28.31
2023-04-23T11:49:17.456Z,29.40
2023-04-23T11:51:45.638Z,28.56
2023-04-23T11:54:13.801Z,28.10
2023-04-23T11:56:41.260Z,27.12
2023-04-23T11:59:08.345Z,26.74
2023-04-23T12:01:48.263Z,27.04
2023-04-23T12:04:19.546Z,27.25
2023-04-23T12:06:47.829Z,26.82
2023-04-23T12:09:16.019Z,27.25
2023-04-23T12:11:43.885Z,27.29
2023-04-23T12:14:12.392Z,27.02
2023-04-23T12:16:43.503Z,26.09
2023-04-23T12:19:13.398Z,25.91
2023-04-23T12:22:03.082Z,26.07
2023-04-23T12:24:30.548Z,25.96
2023-04-23T12:27:00.685Z,26.34
2023-04-23T12:29:30.091Z,26.55
2023-04-23T12:31:59.181Z,26.97
2023-04-23T12:34:25.809Z,27.26
2023-04-23T12:36:55.145Z,27.36
2023-04-23T12:39:31.991Z,27.37
2023-04-23T12:42:05.186Z,27.56
2023-04-23T12:44:34.513Z,27.87
2023-04-23T12:47:08.408Z,28.01
2023-04-23T12:49:36.254Z,27.90
2023-04-23T12:52:04.401Z,27.66
2023-04-23T12:54:33.215Z,27.09
2023-04-23T12:57:02.986Z,26.86
2023-04-23T12:59:30.886Z,26.98
2023-04-23T13:02:01.906Z,27.13
2023-04-23T13:04:29.982Z,27.42
2023-04-23T13:06:57.008Z,27.04
2023-04-23T13:09:39.953Z,26.96
2023-04-23T13:12:06.418Z,27.02
2023-04-23T13:14:32.926Z,27.02
2023-04-23T13:16:59.461Z,27.04
2023-04-23T13:19:26.313Z,26.77
2023-04-23T13:21:53.553Z,26.79
2023-04-23T13:24:20.135Z,26.71
2023-04-23T13:26:46.605Z,26.13
2023-04-23T13:29:13.207Z,26.50
2023-04-23T13:31:39.846Z,26.73
2023-04-23T13:34:06.384Z,26.70
2023-04-23T13:36:32.926Z,26.49
2023-04-23T13:38:59.478Z,26.37
2023-04-23T13:41:26.016Z,26.14
2023-04-23T13:43:52.777Z,25.71
2023-04-23T13:46:19.762Z,25.55
2023-04-23T13:48:46.420Z,25.13
2023-04-23T13:51:32.646Z,25.02
2023-04-23T13:53:59.422Z,24.48
2023-04-23T13:56:30.396Z,24.47
2023-04-23T13:59:18.056Z,24.36
2023-04-23T14:01:47.230Z,24.51
2023-04-23T14:04:13.918Z,24.31
2023-04-23T14:06:40.637Z,24.04
2023-04-23T14:09:07.129Z,23.90
2023-04-23T14:11:33.887Z,24.14
2023-04-23T14:14:01.209Z,24.56
2023-04-23T14:16:27.861Z,24.67
2023-04-23T14:18:54.455Z,24.53
2023-04-23T14:21:22.461Z,24.66
2023-04-23T14:24:00.871Z,24.37
2023-04-23T14:29:30.884Z,24.00
2023-04-23T14:31:57.389Z,24.19
2023-04-23T14:34:23.972Z,24.42
2023-04-23T14:36:53.095Z,24.12
2023-04-23T14:39:22.232Z,23.85
2023-04-23T14:41:49.032Z,23.65
2023-04-23T14:44:15.623Z,23.37
2023-04-23T14:46:42.118Z,23.16
2023-04-23T14:49:08.923Z,22.83
2023-04-23T14:51:35.717Z,22.74
2023-04-23T14:54:02.308Z,22.75
2023-04-23T14:56:28.848Z,22.46
2023-04-23T14:58:55.429Z,22.16
2023-04-23T15:01:21.981Z,22.18
2023-04-23T15:03:48.699Z,21.83
2023-04-23T15:06:15.571Z,21.61
2023-04-23T15:08:42.115Z,21.40
